Time;durP1;ratioP1;P1;durP2;ratioP2;P2;SDS_P1;SDS_P2;PMS_P1;PMS_P2;Temp;Humidity;BMP_temperature;BMP_pressure;BME280_temperature;BME280_humidity;BME280_pressure;Samples;Min_cycle;Max_cycle;Signal;HPM_P1;HPM_P2
2021/04/28 00:00:59;;;;;;;6.30;4.63;;;6.30;99.90;;;;;;5001508;28;20330;-74
2021/04/28 00:03:27;;;;;;;5.37;4.80;;;6.30;99.90;;;;;;4999404;28;20231;-74
2021/04/28 00:05:53;;;;;;;5.17;4.67;;;6.30;99.90;;;;;;5005968;28;20263;-71
2021/04/28 00:08:20;;;;;;;5.83;4.60;;;6.30;99.90;;;;;;5015461;28;20195;-72
2021/04/28 00:10:47;;;;;;;6.13;4.87;;;6.30;99.90;;;;;;5013019;28;20200;-72
2021/04/28 00:13:15;;;;;;;5.80;4.70;;;6.20;99.90;;;;;;5006907;28;20201;-73
2021/04/28 00:15:45;;;;;;;6.13;4.97;;;6.20;99.90;;;;;;5017920;28;20204;-72
2021/04/28 00:18:12;;;;;;;5.53;4.83;;;6.10;99.90;;;;;;5009759;28;20219;-73
2021/04/28 00:20:41;;;;;;;5.90;5.10;;;6.20;99.90;;;;;;5015618;28;20200;-72
2021/04/28 00:23:09;;;;;;;6.43;5.10;;;6.20;99.90;;;;;;5017496;28;20205;-72
2021/04/28 00:25:36;;;;;;;5.40;4.83;;;6.20;99.90;;;;;;5012274;28;20193;-73
2021/04/28 00:28:03;;;;;;;6.20;5.60;;;6.20;99.90;;;;;;5017474;28;20192;-73
2021/04/28 00:30:30;;;;;;;6.33;5.57;;;6.30;99.90;;;;;;5006977;28;20232;-71
2021/04/28 00:32:56;;;;;;;6.20;5.60;;;6.20;99.90;;;;;;5019424;28;20553;-72
2021/04/28 00:35:24;;;;;;;7.60;5.70;;;6.20;99.90;;;;;;5021195;28;21516;-75
2021/04/28 00:37:51;;;;;;;6.83;5.83;;;6.20;99.90;;;;;;5021820;28;21983;-73
2021/04/28 00:40:21;;;;;;;6.30;5.70;;;6.20;99.90;;;;;;5012549;28;20818;-72
2021/04/28 00:42:48;;;;;;;8.23;6.50;;;6.10;99.90;;;;;;5015662;28;20224;-74
2021/04/28 00:45:16;;;;;;;7.87;6.60;;;6.10;99.90;;;;;;5013477;28;20205;-73
2021/04/28 00:47:43;;;;;;;6.53;5.90;;;6.00;99.90;;;;;;5017585;28;20662;-73
2021/04/28 00:50:13;;;;;;;8.23;6.33;;;6.00;99.90;;;;;;5021044;28;20259;-72
2021/04/28 00:52:40;;;;;;;7.07;6.30;;;5.90;99.90;;;;;;5010443;28;20193;-73
2021/04/28 00:55:09;;;;;;;11.63;6.27;;;5.90;99.90;;;;;;5015692;28;20208;-73
2021/04/28 00:57:35;;;;;;;8.73;5.73;;;6.00;99.90;;;;;;5008209;28;20700;-73
2021/04/28 01:00:05;;;;;;;7.27;6.57;;;6.00;99.90;;;;;;5008603;28;20201;-73
2021/04/28 01:02:31;;;;;;;6.90;6.20;;;6.00;99.90;;;;;;5022345;28;20197;-74
2021/04/28 01:04:58;;;;;;;7.23;5.97;;;6.00;99.90;;;;;;5016105;28;20363;-72
2021/04/28 01:07:24;;;;;;;7.27;6.23;;;6.10;99.90;;;;;;5010999;28;20204;-72
2021/04/28 01:09:53;;;;;;;9.37;6.73;;;6.00;99.90;;;;;;5013863;28;20208;-72
2021/04/28 01:12:22;;;;;;;7.50;6.43;;;6.00;99.90;;;;;;5013813;28;20204;-71
2021/04/28 01:14:51;;;;;;;7.30;6.40;;;5.90;99.90;;;;;;5012983;28;20196;-72
2021/04/28 01:17:18;;;;;;;6.83;6.10;;;5.90;99.90;;;;;;5009324;28;20298;-71
2021/04/28 01:19:46;;;;;;;9.40;7.30;;;5.80;99.90;;;;;;5009905;28;20209;-71
2021/04/28 01:22:14;;;;;;;8.43;6.43;;;5.80;99.90;;;;;;5009140;28;20676;-72
2021/04/28 01:24:41;;;;;;;7.30;6.67;;;5.80;99.90;;;;;;5011037;28;20201;-71
2021/04/28 01:27:15;;;;;;;10.07;7.03;;;5.90;99.90;;;;;;5023335;28;20204;-71
2021/04/28 01:29:43;;;;;;;7.60;6.80;;;5.80;99.90;;;;;;5015629;28;20224;-72
2021/04/28 01:32:14;;;;;;;7.90;6.70;;;5.80;99.90;;;;;;5012800;28;20231;-71
2021/04/28 01:34:41;;;;;;;7.37;6.50;;;5.90;99.90;;;;;;5015110;28;20198;-72
2021/04/28 01:37:08;;;;;;;7.40;6.63;;;5.90;99.90;;;;;;5017907;28;20676;-72
2021/04/28 01:39:36;;;;;;;8.50;6.27;;;5.90;99.90;;;;;;5018134;28;20204;-73
2021/04/28 01:42:04;;;;;;;8.77;6.90;;;6.10;99.90;;;;;;5009299;28;20650;-72
2021/04/28 01:44:32;;;;;;;9.27;6.60;;;6.20;99.90;;;;;;5017398;28;20714;-71
2021/04/28 01:46:59;;;;;;;7.10;6.40;;;6.20;99.90;;;;;;5025805;28;20197;-71
2021/04/28 01:49:27;;;;;;;6.67;6.00;;;6.20;99.90;;;;;;5019636;28;20196;-73
2021/04/28 01:51:55;;;;;;;7.60;6.63;;;6.30;99.90;;;;;;5028841;28;20772;-72
2021/04/28 01:54:22;;;;;;;9.00;6.50;;;6.40;99.90;;;;;;5025897;28;20200;-71
2021/04/28 01:56:51;;;;;;;11.63;6.90;;;6.40;99.90;;;;;;5015242;28;20275;-71
2021/04/28 01:59:20;;;;;;;9.90;6.77;;;6.40;99.90;;;;;;5017466;28;21093;-71
2021/04/28 02:01:49;;;;;;;10.17;6.97;;;6.40;99.90;;;;;;5007797;28;20251;-72
2021/04/28 02:04:16;;;;;;;9.60;7.13;;;6.40;99.90;;;;;;5016957;28;20196;-72
2021/04/28 02:06:43;;;;;;;9.03;6.50;;;6.40;99.90;;;;;;5017577;28;20193;-75
2021/04/28 02:09:10;;;;;;;9.27;7.50;;;6.30;99.90;;;;;;5016274;28;20217;-73
2021/04/28 02:11:37;;;;;;;8.83;6.93;;;6.30;99.90;;;;;;5028111;28;20203;-72
2021/04/28 02:14:05;;;;;;;9.17;7.33;;;6.30;99.90;;;;;;5028494;28;20196;-73
2021/04/28 02:16:37;;;;;;;7.50;6.80;;;6.30;99.90;;;;;;5024478;28;20892;-72
2021/04/28 02:19:05;;;;;;;9.00;7.57;;;6.20;99.90;;;;;;5028453;28;20200;-72
2021/04/28 02:21:32;;;;;;;9.00;6.93;;;6.30;99.90;;;;;;5028402;28;20193;-71
2021/04/28 02:23:59;;;;;;;11.13;7.10;;;6.30;99.90;;;;;;5027055;28;20204;-71
2021/04/28 02:26:25;;;;;;;7.87;7.07;;;6.30;99.90;;;;;;5027986;28;20885;-71
2021/04/28 02:28:52;;;;;;;9.20;7.50;;;6.20;99.90;;;;;;5027094;28;20251;-72
2021/04/28 02:31:18;;;;;;;8.07;7.20;;;6.20;99.90;;;;;;5009918;28;20193;-72
2021/04/28 02:33:46;;;;;;;9.53;7.43;;;6.20;99.90;;;;;;5008564;28;20192;-72
2021/04/28 02:36:12;;;;;;;8.53;7.20;;;6.20;99.90;;;;;;5019133;28;20254;-72
2021/04/28 02:38:42;;;;;;;9.53;7.70;;;6.20;99.90;;;;;;5026797;28;20286;-72
2021/04/28 02:41:08;;;;;;;8.93;7.30;;;6.20;99.90;;;;;;5027915;28;20835;-75
2021/04/28 02:43:37;;;;;;;9.93;8.03;;;6.20;99.90;;;;;;5027936;28;20267;-71
2021/04/28 02:46:05;;;;;;;10.40;8.00;;;6.10;99.90;;;;;;5027982;28;20204;-72
2021/04/28 02:48:33;;;;;;;8.13;7.33;;;6.10;99.90;;;;;;5026145;28;20674;-71
2021/04/28 02:51:01;;;;;;;8.83;7.93;;;6.00;99.90;;;;;;5008602;28;20266;-73
2021/04/28 02:53:29;;;;;;;10.00;7.40;;;6.00;99.90;;;;;;5007815;28;20197;-73
2021/04/28 02:55:58;;;;;;;10.33;8.13;;;5.80;99.90;;;;;;5007576;28;20197;-71
2021/04/28 02:58:26;;;;;;;9.43;8.43;;;5.70;99.90;;;;;;5007219;28;20225;-71
2021/04/28 03:00:53;;;;;;;11.50;8.47;;;5.50;99.90;;;;;;5007679;28;20259;-72
2021/04/28 03:03:20;;;;;;;12.07;8.00;;;5.30;99.90;;;;;;5015446;28;20203;-72
2021/04/28 03:05:50;;;;;;;10.33;8.43;;;5.20;99.90;;;;;;5008279;28;20201;-71
2021/04/28 03:08:17;;;;;;;12.53;8.70;;;5.00;99.90;;;;;;5009087;28;20722;-72
2021/04/28 03:10:45;;;;;;;10.77;9.03;;;4.90;99.90;;;;;;5007305;28;20200;-72
2021/04/28 03:13:12;;;;;;;11.10;8.23;;;4.80;99.90;;;;;;5010840;28;20200;-72
2021/04/28 03:15:38;;;;;;;10.37;9.27;;;4.70;99.90;;;;;;5013451;28;20204;-72
2021/04/28 03:18:06;;;;;;;12.97;9.47;;;4.50;99.90;;;;;;5025239;28;20216;-71
2021/04/28 03:20:35;;;;;;;11.57;9.73;;;4.50;99.90;;;;;;5027039;28;20257;-72
2021/04/28 03:23:02;;;;;;;12.17;9.27;;;4.40;99.90;;;;;;5024421;28;20862;-72
2021/04/28 03:25:32;;;;;;;13.23;9.70;;;4.40;99.90;;;;;;5021670;28;20220;-73
2021/04/28 03:28:00;;;;;;;11.63;9.63;;;4.40;99.90;;;;;;5025192;28;20231;-72
2021/04/28 03:30:26;;;;;;;12.40;9.83;;;4.50;99.90;;;;;;5017420;28;20338;-73
2021/04/28 03:32:53;;;;;;;12.47;9.90;;;4.50;99.90;;;;;;5007224;28;20208;-71
2021/04/28 03:35:19;;;;;;;12.67;9.70;;;4.50;99.90;;;;;;5010873;28;20196;-71
2021/04/28 03:37:46;;;;;;;15.13;10.30;;;4.50;99.90;;;;;;5027137;28;20278;-72
2021/04/28 03:40:13;;;;;;;12.40;10.03;;;4.50;99.90;;;;;;5026099;28;20200;-72
2021/04/28 03:42:40;;;;;;;14.63;10.30;;;4.50;99.90;;;;;;5026792;28;20200;-71
2021/04/28 03:45:08;;;;;;;12.73;10.40;;;4.40;99.90;;;;;;5026870;28;20196;-73
2021/04/28 03:47:34;;;;;;;12.00;10.17;;;4.40;99.90;;;;;;5027090;28;20216;-73
2021/04/28 03:50:01;;;;;;;13.17;10.10;;;4.40;99.90;;;;;;5010154;28;20193;-70
2021/04/28 03:52:27;;;;;;;12.57;10.27;;;4.40;99.90;;;;;;5007132;28;20208;-73
2021/04/28 03:54:54;;;;;;;13.83;10.40;;;4.40;99.90;;;;;;5007128;28;20659;-72
2021/04/28 03:57:20;;;;;;;12.10;10.33;;;4.30;99.90;;;;;;5007280;28;20248;-73
2021/04/28 03:59:47;;;;;;;10.70;9.57;;;4.30;99.90;;;;;;5007384;28;20201;-73
2021/04/28 04:02:14;;;;;;;12.70;10.17;;;4.30;99.90;;;;;;5007251;28;20201;-73
2021/04/28 04:04:40;;;;;;;11.90;9.40;;;4.30;99.90;;;;;;5007251;28;20232;-73
2021/04/28 04:07:07;;;;;;;13.67;10.43;;;4.40;99.90;;;;;;5007211;28;20200;-73
2021/04/28 04:09:33;;;;;;;12.27;9.90;;;4.40;99.90;;;;;;5022817;28;20197;-73
2021/04/28 04:12:00;;;;;;;13.03;10.80;;;4.40;99.90;;;;;;5010623;28;20205;-74
2021/04/28 04:14:27;;;;;;;11.37;9.47;;;4.30;99.90;;;;;;5011073;28;20200;-71
2021/04/28 04:16:54;;;;;;;11.37;9.77;;;4.20;99.90;;;;;;5010683;28;20236;-71
2021/04/28 04:19:21;;;;;;;11.37;9.67;;;4.20;99.90;;;;;;5010534;28;20256;-70
2021/04/28 04:21:47;;;;;;;12.20;10.17;;;4.20;99.90;;;;;;5011070;28;20201;-71
2021/04/28 04:24:14;;;;;;;15.87;10.70;;;4.20;99.90;;;;;;5026584;28;20914;-71
2021/04/28 04:26:40;;;;;;;11.67;9.60;;;4.20;99.90;;;;;;5030603;28;20192;-71
2021/04/28 04:29:07;;;;;;;12.30;10.57;;;4.20;99.90;;;;;;5030160;28;20225;-72
2021/04/28 04:31:33;;;;;;;12.77;10.17;;;4.20;99.90;;;;;;5030338;28;20196;-71
2021/04/28 04:34:01;;;;;;;10.63;9.53;;;4.10;99.90;;;;;;5027243;28;20250;-72
2021/04/28 04:36:28;;;;;;;14.13;9.70;;;4.10;99.90;;;;;;5030532;28;20197;-71
2021/04/28 04:38:54;;;;;;;15.50;10.33;;;4.10;99.90;;;;;;5018226;28;20291;-70
2021/04/28 04:41:21;;;;;;;13.33;9.73;;;4.10;99.90;;;;;;5030325;28;20256;-71
2021/04/28 04:43:47;;;;;;;10.97;9.23;;;4.10;99.90;;;;;;5030512;28;20201;-71
2021/04/28 04:46:13;;;;;;;13.10;9.77;;;4.10;99.90;;;;;;5030541;28;20258;-71
2021/04/28 04:48:40;;;;;;;13.07;10.60;;;4.30;99.90;;;;;;5019777;28;20200;-74
2021/04/28 04:51:07;;;;;;;13.13;10.07;;;4.40;99.90;;;;;;5030336;28;20203;-71
2021/04/28 04:53:34;;;;;;;13.10;10.50;;;4.50;99.90;;;;;;5030175;28;20204;-71
2021/04/28 04:56:00;;;;;;;13.80;9.53;;;4.70;99.90;;;;;;5029188;28;20204;-71
2021/04/28 04:58:27;;;;;;;12.80;9.97;;;4.80;99.90;;;;;;5030073;28;20282;-72
2021/04/28 05:00:54;;;;;;;12.13;9.70;;;4.90;99.90;;;;;;5020869;28;20189;-72
2021/04/28 05:03:20;;;;;;;10.73;9.70;;;4.90;99.90;;;;;;5010195;28;20196;-71
2021/04/28 05:05:46;;;;;;;12.90;9.57;;;4.90;99.90;;;;;;5010443;28;20202;-74
2021/04/28 05:08:14;;;;;;;11.87;9.83;;;5.00;99.90;;;;;;5011740;28;20197;-72
2021/04/28 05:10:41;;;;;;;11.87;9.33;;;5.10;99.90;;;;;;5029508;28;20193;-74
2021/04/28 05:13:08;;;;;;;11.83;9.00;;;5.20;99.90;;;;;;5029792;28;20530;-72
2021/04/28 05:15:34;;;;;;;12.27;9.03;;;5.40;99.90;;;;;;5020518;28;20201;-72
2021/04/28 05:18:01;;;;;;;12.83;9.30;;;5.80;99.90;;;;;;5009309;28;20225;-72
2021/04/28 05:20:27;;;;;;;9.97;8.70;;;6.50;99.90;;;;;;5008654;28;20193;-73
2021/04/28 05:22:54;;;;;;;9.60;7.90;;;7.30;99.90;;;;;;5009989;28;20204;-72
2021/04/28 05:25:21;;;;;;;9.47;8.40;;;7.90;99.90;;;;;;5009816;28;20224;-73
2021/04/28 05:27:48;;;;;;;9.23;7.57;;;8.50;99.90;;;;;;5009351;28;20691;-72
2021/04/28 05:30:15;;;;;;;8.90;7.73;;;9.00;99.90;;;;;;5009653;28;20236;-72
2021/04/28 05:32:42;;;;;;;11.90;7.37;;;9.50;99.90;;;;;;5013728;28;20192;-72
2021/04/28 05:35:10;;;;;;;10.53;8.10;;;10.00;99.90;;;;;;5028160;28;20204;-72
2021/04/28 05:37:36;;;;;;;8.73;7.73;;;10.40;99.90;;;;;;5028867;28;20216;-71
2021/04/28 05:40:04;;;;;;;8.97;7.63;;;10.70;99.90;;;;;;5028258;28;20200;-72
2021/04/28 05:42:32;;;;;;;8.43;7.30;;;11.00;99.90;;;;;;5029212;28;20223;-72
2021/04/28 05:44:58;;;;;;;10.10;7.20;;;11.40;99.90;;;;;;5029046;28;20601;-72
2021/04/28 05:47:25;;;;;;;8.20;7.40;;;11.80;99.90;;;;;;5023061;28;20205;-72
2021/04/28 05:49:52;;;;;;;9.07;7.03;;;12.00;99.90;;;;;;5029187;28;20192;-72
2021/04/28 05:52:20;;;;;;;8.30;7.50;;;12.40;99.90;;;;;;5028322;28;20204;-72
2021/04/28 05:54:47;;;;;;;9.87;6.97;;;12.70;99.90;;;;;;5028873;28;20193;-73
2021/04/28 05:57:16;;;;;;;10.00;7.20;;;12.40;99.90;;;;;;5028020;28;20230;-72
2021/04/28 05:59:44;;;;;;;8.57;7.30;;;11.60;99.90;;;;;;5028771;28;20203;-72
2021/04/28 06:02:11;;;;;;;9.07;7.80;;;10.90;99.90;;;;;;5021417;28;20602;-73
2021/04/28 06:04:38;;;;;;;12.23;7.63;;;10.40;99.90;;;;;;5028580;28;20725;-72
2021/04/28 06:07:05;;;;;;;9.53;7.23;;;10.00;99.90;;;;;;5028449;28;20208;-72
2021/04/28 06:09:32;;;;;;;9.97;7.50;;;9.80;99.90;;;;;;5028830;28;20201;-72
2021/04/28 06:11:59;;;;;;;10.93;7.00;;;9.90;99.90;;;;;;5028659;28;20232;-72
2021/04/28 06:14:26;;;;;;;8.73;7.90;;;10.30;99.90;;;;;;5028482;28;20553;-72
2021/04/28 06:16:53;;;;;;;9.43;7.90;;;10.40;99.90;;;;;;5025439;28;20199;-73
2021/04/28 06:19:20;;;;;;;7.80;7.00;;;10.40;99.90;;;;;;5015919;28;20875;-72
2021/04/28 06:21:46;;;;;;;8.93;7.63;;;10.20;99.90;;;;;;5008878;28;20220;-73
2021/04/28 06:24:13;;;;;;;9.37;7.67;;;10.10;99.90;;;;;;5008630;28;20189;-72
2021/04/28 06:26:41;;;;;;;8.20;7.40;;;9.90;99.90;;;;;;5008645;28;20605;-72
2021/04/28 06:29:07;;;;;;;8.37;7.57;;;9.70;99.90;;;;;;5008337;28;20715;-72
2021/04/28 06:31:34;;;;;;;8.47;7.67;;;9.50;99.90;;;;;;5011765;28;20826;-72
2021/04/28 06:34:01;;;;;;;9.70;8.17;;;9.30;99.90;;;;;;5026052;28;20207;-72
2021/04/28 06:36:28;;;;;;;11.30;7.90;;;9.20;99.90;;;;;;5008678;28;20283;-75
2021/04/28 06:38:55;;;;;;;9.10;8.20;;;9.10;99.90;;;;;;5028361;28;20258;-73
2021/04/28 06:41:21;;;;;;;8.50;7.70;;;9.00;99.90;;;;;;5021264;28;20262;-74
2021/04/28 06:43:48;;;;;;;9.53;7.30;;;9.00;99.90;;;;;;5008553;28;20235;-74
2021/04/28 06:46:14;;;;;;;8.50;7.60;;;9.00;99.90;;;;;;5016719;28;20204;-75
2021/04/28 06:48:41;;;;;;;9.10;7.73;;;9.00;99.90;;;;;;5027069;28;20196;-76
2021/04/28 06:51:08;;;;;;;9.73;7.60;;;9.00;99.90;;;;;;5027661;28;20578;-75
2021/04/28 06:53:35;;;;;;;9.77;7.87;;;9.00;99.90;;;;;;5027729;28;20204;-71
2021/04/28 06:56:02;;;;;;;9.10;7.20;;;9.10;99.90;;;;;;5014674;28;20208;-71
2021/04/28 06:58:30;;;;;;;10.73;8.37;;;9.10;99.90;;;;;;5019750;28;20228;-73
2021/04/28 07:00:56;;;;;;;8.60;7.73;;;9.10;99.90;;;;;;5027528;28;20235;-71
2021/04/28 07:03:23;;;;;;;9.67;8.17;;;9.10;99.90;;;;;;5027502;28;20243;-71
2021/04/28 07:05:49;;;;;;;8.97;8.07;;;9.20;99.90;;;;;;5026985;28;20228;-73
2021/04/28 07:08:17;;;;;;;9.77;8.07;;;9.30;99.90;;;;;;5024615;28;20697;-75
2021/04/28 07:10:43;;;;;;;8.70;7.57;;;9.30;99.90;;;;;;5007688;28;20196;-78
2021/04/28 07:13:10;;;;;;;9.77;8.00;;;9.40;99.90;;;;;;5007792;28;20219;-77
2021/04/28 07:15:37;;;;;;;11.63;8.27;;;9.60;99.90;;;;;;5020900;28;20593;-77
2021/04/28 07:18:04;;;;;;;9.97;7.97;;;9.80;99.90;;;;;;5019449;28;20212;-76
2021/04/28 07:20:31;;;;;;;14.33;8.17;;;10.00;99.90;;;;;;5010150;28;20296;-76
2021/04/28 07:22:58;;;;;;;8.40;7.53;;;10.20;99.90;;;;;;5008878;28;20204;-76
2021/04/28 07:25:25;;;;;;;10.37;7.60;;;10.40;99.90;;;;;;5027646;28;20554;-75
2021/04/28 07:27:52;;;;;;;9.70;7.77;;;10.60;99.90;;;;;;5027194;28;20188;-77
2021/04/28 07:30:20;;;;;;;9.13;8.23;;;10.70;99.90;;;;;;5024070;28;20785;-76
2021/04/28 07:32:47;;;;;;;12.33;7.80;;;10.80;99.90;;;;;;5008721;28;20197;-76
2021/04/28 07:35:14;;;;;;;12.07;8.20;;;10.70;99.90;;;;;;5009169;28;20201;-75
2021/04/28 07:37:42;;;;;;;9.33;7.70;;;10.80;99.90;;;;;;5023354;28;20224;-76
2021/04/28 07:40:11;;;;;;;10.10;8.37;;;11.00;99.90;;;;;;5027463;28;20196;-75
2021/04/28 07:42:38;;;;;;;8.30;7.50;;;11.20;99.90;;;;;;5026811;28;20196;-74
2021/04/28 07:45:06;;;;;;;9.00;7.77;;;11.20;99.90;;;;;;5026269;28;20239;-75
2021/04/28 07:47:33;;;;;;;9.23;8.33;;;11.20;99.90;;;;;;5027475;28;20625;-76
2021/04/28 07:49:59;;;;;;;9.17;8.27;;;11.30;99.90;;;;;;5027238;28;20188;-77
2021/04/28 07:52:26;;;;;;;9.23;8.10;;;11.20;99.90;;;;;;5027592;28;20192;-75
2021/04/28 07:54:52;;;;;;;8.67;7.67;;;11.20;99.90;;;;;;5011769;28;20197;-77
2021/04/28 07:57:19;;;;;;;9.77;8.30;;;11.10;99.90;;;;;;5006641;28;20694;-75
2021/04/28 07:59:46;;;;;;;9.70;8.27;;;11.10;99.90;;;;;;5017165;28;20200;-76
2021/04/28 08:02:13;;;;;;;12.43;8.47;;;11.10;99.90;;;;;;5019371;28;20322;-77
2021/04/28 08:04:40;;;;;;;9.00;8.10;;;11.20;99.90;;;;;;5007501;28;20201;-76
2021/04/28 08:07:07;;;;;;;9.97;8.10;;;11.40;99.90;;;;;;5017510;28;20205;-75
2021/04/28 08:09:35;;;;;;;9.43;8.53;;;12.10;99.90;;;;;;5021530;28;20205;-76
2021/04/28 08:12:02;;;;;;;8.97;8.07;;;12.60;99.90;;;;;;5012726;28;20227;-76
2021/04/28 08:14:29;;;;;;;11.53;9.07;;;13.00;99.90;;;;;;5005985;28;20228;-76
2021/04/28 08:16:56;;;;;;;9.60;8.47;;;12.90;99.90;;;;;;5015317;28;20201;-76
2021/04/28 08:19:23;;;;;;;8.87;8.07;;;12.90;99.90;;;;;;5026240;28;20836;-76
2021/04/28 08:21:50;;;;;;;9.13;8.20;;;12.90;99.90;;;;;;5010458;28;20211;-76
2021/04/28 08:24:16;;;;;;;9.40;8.40;;;13.00;99.90;;;;;;5025722;28;20200;-76
2021/04/28 08:26:45;;;;;;;10.80;7.80;;;13.50;99.90;;;;;;5005926;28;20204;-76
2021/04/28 08:29:11;;;;;;;9.77;8.07;;;14.00;99.90;;;;;;5017063;28;20776;-75
2021/04/28 08:31:38;;;;;;;8.57;7.77;;;14.70;99.90;;;;;;5007703;28;20641;-75
2021/04/28 08:34:05;;;;;;;11.60;8.60;;;15.50;99.90;;;;;;5027046;28;20204;-75
2021/04/28 08:36:32;;;;;;;11.43;8.53;;;16.00;99.90;;;;;;5013268;28;20239;-75
2021/04/28 08:38:58;;;;;;;9.20;8.30;;;15.90;99.90;;;;;;5011091;28;20256;-76
2021/04/28 08:41:25;;;;;;;12.47;8.50;;;16.00;99.90;;;;;;5006186;28;20205;-75
2021/04/28 08:43:51;;;;;;;9.43;8.43;;;16.60;99.90;;;;;;5012921;28;20207;-76
2021/04/28 08:46:18;;;;;;;9.23;8.33;;;16.90;99.90;;;;;;5019344;28;20200;-75
2021/04/28 08:48:44;;;;;;;9.73;8.27;;;16.70;99.90;;;;;;5017884;28;20353;-74
2021/04/28 08:51:15;;;;;;;9.00;8.10;;;16.50;99.90;;;;;;5009041;28;20702;-76
2021/04/28 08:53:41;;;;;;;9.63;8.73;;;16.90;99.90;;;;;;5006706;28;20205;-76
2021/04/28 08:56:09;;;;;;;9.17;8.27;;;17.40;99.90;;;;;;5008658;28;20209;-75
2021/04/28 08:58:36;;;;;;;10.17;8.50;;;17.30;99.90;;;;;;5017205;28;20232;-76
2021/04/28 09:01:04;;;;;;;9.20;8.30;;;17.00;99.90;;;;;;5030004;28;20207;-76
2021/04/28 09:03:39;;;;;;;10.33;9.27;;;16.70;99.90;;;;;;5029202;28;20201;-75
2021/04/28 09:06:31;;;;;;;10.97;8.77;;;16.00;99.60;;;;;;5020094;28;20287;-74
2021/04/28 09:09:04;;;;;;;10.70;9.07;;;15.50;99.90;;;;;;5018639;28;20854;-75
2021/04/28 09:11:42;;;;;;;9.83;8.83;;;15.10;99.90;;;;;;5009679;28;20281;-76
2021/04/28 09:14:12;;;;;;;11.13;9.93;;;15.00;99.90;;;;;;5022331;28;20874;-75
2021/04/28 09:16:40;;;;;;;12.13;9.80;;;15.20;99.90;;;;;;5014881;28;20197;-75
2021/04/28 09:19:07;;;;;;;11.00;9.70;;;15.60;99.90;;;;;;5025782;28;20220;-74
2021/04/28 09:21:57;;;;;;;11.37;9.33;;;16.20;99.90;;;;;;5016006;28;20208;-75
2021/04/28 09:24:25;;;;;;;10.60;9.53;;;16.30;99.90;;;;;;5019930;28;20200;-75
2021/04/28 09:26:54;;;;;;;11.93;9.37;;;16.80;99.90;;;;;;5010435;28;20281;-75
2021/04/28 09:29:23;;;;;;;10.00;9.00;;;17.60;99.90;;;;;;5013747;28;20245;-75
2021/04/28 09:32:01;;;;;;;10.87;9.77;;;18.40;99.90;;;;;;5009657;28;20205;-75
2021/04/28 09:34:34;;;;;;;12.23;9.90;;;18.60;97.10;;;;;;5010126;28;20193;-74
2021/04/28 09:37:08;;;;;;;12.37;9.97;;;18.20;95.20;;;;;;5012674;28;20196;-74
2021/04/28 09:39:45;;;;;;;10.50;9.50;;;17.50;94.40;;;;;;5010302;28;20294;-74
2021/04/28 09:42:12;;;;;;;11.27;10.17;;;17.20;95.10;;;;;;5009178;28;20193;-75
2021/04/28 09:44:44;;;;;;;11.53;10.33;;;16.80;96.80;;;;;;5008890;28;20205;-74
2021/04/28 09:47:14;;;;;;;12.83;10.10;;;16.40;96.30;;;;;;5009499;28;20208;-75
2021/04/28 09:49:50;;;;;;;10.93;9.83;;;16.30;96.70;;;;;;5009221;28;20300;-75
2021/04/28 09:52:20;;;;;;;11.03;9.90;;;15.90;99.90;;;;;;5009363;28;20287;-74
2021/04/28 09:54:48;;;;;;;11.00;9.90;;;15.80;99.90;;;;;;5028643;28;20665;-75
2021/04/28 09:57:18;;;;;;;11.00;10.00;;;15.80;99.90;;;;;;5009990;28;20204;-75
2021/04/28 09:59:46;;;;;;;12.23;10.50;;;15.80;99.90;;;;;;5009400;28;20229;-75
2021/04/28 10:02:15;;;;;;;11.20;10.03;;;15.70;99.90;;;;;;5008646;28;20197;-75
2021/04/28 10:04:41;;;;;;;11.70;10.57;;;15.60;99.90;;;;;;5009621;28;20197;-74
2021/04/28 10:07:08;;;;;;;10.73;9.63;;;15.30;99.90;;;;;;5010852;28;20201;-74
2021/04/28 10:09:36;;;;;;;12.10;10.30;;;15.10;99.90;;;;;;5021320;28;20205;-74
2021/04/28 10:12:05;;;;;;;11.80;10.60;;;15.00;99.90;;;;;;5008782;28;20316;-73
2021/04/28 10:14:33;;;;;;;12.60;11.30;;;14.80;99.90;;;;;;5011416;28;20673;-73
2021/04/28 10:17:03;;;;;;;12.10;10.80;;;14.70;99.90;;;;;;5008795;28;20698;-75
2021/04/28 10:19:30;;;;;;;12.97;10.07;;;14.60;99.90;;;;;;5027523;28;20220;-74
2021/04/28 10:21:58;;;;;;;12.50;10.43;;;14.60;99.90;;;;;;5008837;28;20197;-75
2021/04/28 10:24:25;;;;;;;11.90;10.70;;;14.50;99.90;;;;;;5015463;28;20200;-74
2021/04/28 10:26:53;;;;;;;12.47;11.07;;;14.40;99.90;;;;;;5007347;28;20228;-74
2021/04/28 10:29:21;;;;;;;12.03;10.70;;;14.40;99.90;;;;;;5027068;28;20236;-73
2021/04/28 10:31:49;;;;;;;13.10;10.60;;;14.40;99.90;;;;;;5012674;28;20701;-74
2021/04/28 10:34:24;;;;;;;12.50;10.70;;;14.40;99.90;;;;;;5011302;28;20228;-73
2021/04/28 10:36:54;;;;;;;12.03;10.87;;;14.40;99.90;;;;;;5013761;28;20184;-73
2021/04/28 10:39:23;;;;;;;11.97;10.77;;;14.50;99.90;;;;;;4997973;28;20228;-75
2021/04/28 10:41:50;;;;;;;16.27;11.10;;;14.60;99.90;;;;;;5021979;28;20254;-74
2021/04/28 10:44:40;;;;;;;11.40;10.23;;;14.60;99.90;;;;;;5021844;28;20201;-74
2021/04/28 10:47:33;;;;;;;12.03;10.83;;;14.80;99.90;;;;;;5027074;28;20212;-77
2021/04/28 10:50:20;;;;;;;11.40;10.23;;;15.00;99.90;;;;;;5026825;28;20234;-74
2021/04/28 10:52:51;;;;;;;13.40;12.00;;;15.20;99.90;;;;;;5019106;28;20630;-73
2021/04/28 10:55:53;;;;;;;11.57;10.37;;;15.60;99.90;;;;;;5008609;28;20200;-73
2021/04/28 10:58:40;;;;;;;12.47;11.00;;;15.90;99.90;;;;;;5029362;28;20227;-75
2021/04/28 11:01:35;;;;;;;12.97;11.37;;;16.80;99.90;;;;;;5010225;28;20197;-76
2021/04/28 11:04:02;;;;;;;12.27;10.90;;;17.40;99.90;;;;;;5008111;28;20189;-76
2021/04/28 11:06:41;;;;;;;13.50;10.67;;;17.60;99.50;;;;;;5007500;28;20651;-76
2021/04/28 11:09:20;;;;;;;11.93;10.73;;;17.50;96.90;;;;;;5008425;28;20197;-77
2021/04/28 11:11:54;;;;;;;12.13;10.30;;;17.00;94.80;;;;;;5007623;28;20247;-76
2021/04/28 11:14:35;;;;;;;12.67;11.40;;;17.10;96.20;;;;;;5009736;28;20200;-76
2021/04/28 11:17:22;;;;;;;12.07;10.83;;;17.20;96.60;;;;;;5021168;28;20200;-75
2021/04/28 11:19:51;;;;;;;14.63;11.73;;;16.90;96.40;;;;;;5015434;28;20685;-76
2021/04/28 11:22:22;;;;;;;11.90;10.70;;;16.90;97.40;;;;;;5021873;28;20201;-75
2021/04/28 11:25:17;;;;;;;12.77;11.33;;;16.80;98.10;;;;;;5023556;28;20192;-76
2021/04/28 11:28:07;;;;;;;12.60;11.33;;;16.90;98.10;;;;;;5009657;28;20205;-74
2021/04/28 11:30:51;;;;;;;15.43;11.47;;;17.00;99.90;;;;;;5023856;28;20232;-79
2021/04/28 11:33:36;;;;;;;13.33;11.93;;;17.30;99.90;;;;;;5011794;28;20204;-74
2021/04/28 11:36:16;;;;;;;12.27;11.07;;;17.50;99.20;;;;;;5005532;28;20280;-76
2021/04/28 11:38:46;;;;;;;13.10;11.40;;;18.00;98.90;;;;;;5015778;28;20650;-77
2021/04/28 11:41:14;;;;;;;13.73;11.50;;;18.10;97.50;;;;;;5028107;28;20254;-76
2021/04/28 11:43:43;;;;;;;12.43;11.10;;;18.00;98.90;;;;;;5009227;28;20209;-76
2021/04/28 11:46:11;;;;;;;12.53;11.20;;;18.00;98.80;;;;;;5007796;28;20197;-76
2021/04/28 11:48:40;;;;;;;13.53;11.03;;;17.90;97.00;;;;;;5005220;28;20215;-76
2021/04/28 11:51:08;;;;;;;13.70;12.20;;;17.60;97.00;;;;;;5007884;28;20254;-75
2021/04/28 11:53:41;;;;;;;12.93;11.60;;;17.50;98.20;;;;;;5011136;28;20193;-76
2021/04/28 11:56:07;;;;;;;13.37;10.97;;;17.20;99.00;;;;;;5007555;28;20193;-76
2021/04/28 11:58:34;;;;;;;13.03;11.73;;;16.90;99.60;;;;;;5022881;28;20228;-75
2021/04/28 12:01:04;;;;;;;13.93;12.10;;;16.70;99.90;;;;;;5017880;28;20204;-75
2021/04/28 12:03:47;;;;;;;14.20;12.10;;;16.50;99.90;;;;;;5010317;28;20228;-76
2021/04/28 12:06:31;;;;;;;13.27;11.60;;;16.40;99.90;;;;;;5010494;28;20549;-77
2021/04/28 12:09:28;;;;;;;13.43;12.00;;;16.30;99.90;;;;;;5009976;28;20201;-76
2021/04/28 12:12:10;;;;;;;13.80;12.33;;;16.20;99.90;;;;;;5007171;28;20208;-77
2021/04/28 12:14:37;;;;;;;14.10;12.10;;;16.40;99.90;;;;;;5021032;28;20197;-77
2021/04/28 12:17:04;;;;;;;12.70;11.50;;;16.40;99.90;;;;;;5008395;28;20605;-75
2021/04/28 12:19:30;;;;;;;13.80;12.13;;;16.40;99.90;;;;;;5007863;28;20224;-75
2021/04/28 12:22:01;;;;;;;13.57;12.20;;;16.40;99.90;;;;;;5006918;28;20258;-75
2021/04/28 12:24:29;;;;;;;13.67;12.23;;;16.50;99.90;;;;;;5013558;28;20562;-77
2021/04/28 12:27:18;;;;;;;13.50;12.10;;;17.00;99.90;;;;;;5006908;28;20268;-78
2021/04/28 12:29:47;;;;;;;13.87;12.43;;;17.40;99.90;;;;;;5009069;28;20232;-74
2021/04/28 12:32:15;;;;;;;13.20;11.80;;;18.00;99.90;;;;;;5016489;28;20254;-75
2021/04/28 12:34:43;;;;;;;13.63;12.23;;;18.00;99.10;;;;;;5023196;28;20193;-76
2021/04/28 12:37:15;;;;;;;14.07;12.63;;;17.90;99.90;;;;;;5024618;28;20195;-75
2021/04/28 12:39:46;;;;;;;13.50;12.10;;;17.90;97.80;;;;;;5022208;28;20579;-75
2021/04/28 12:42:13;;;;;;;15.50;11.80;;;18.00;97.90;;;;;;5024256;28;20200;-74
2021/04/28 12:44:40;;;;;;;14.27;11.90;;;17.70;97.30;;;;;;5035264;28;20193;-74
2021/04/28 12:47:06;;;;;;;12.97;11.57;;;17.40;95.50;;;;;;5035393;28;20208;-73
2021/04/28 12:49:33;;;;;;;13.23;11.83;;;17.40;97.20;;;;;;5035608;28;20208;-74
2021/04/28 12:52:00;;;;;;;14.43;12.70;;;17.40;97.50;;;;;;5035581;28;20196;-74